Time;durP1;ratioP1;P1;durP2;ratioP2;P2;SDS_P1;SDS_P2;PMS_P1;PMS_P2;Temp;Humidity;BMP_temperature;BMP_pressure;BME280_temperature;BME280_humidity;BME280_pressure;Samples;Min_cycle;Max_cycle;Signal;HPM_P1;HPM_P2
2024/03/23 00:00:42;;;;;;;19.15;7.68;;;8.90;99.90;;;;;;5021802;28;20512;-73
2024/03/23 00:03:09;;;;;;;20.33;6.05;;;8.90;99.90;;;;;;5024324;28;20025;-73
2024/03/23 00:05:37;;;;;;;21.83;7.45;;;8.80;99.90;;;;;;5024200;28;20121;-73
2024/03/23 00:08:04;;;;;;;16.67;6.57;;;8.80;99.90;;;;;;5014584;28;20519;-73
2024/03/23 00:10:31;;;;;;;13.88;5.03;;;8.70;99.90;;;;;;5017857;28;20152;-74
2024/03/23 00:13:01;;;;;;;25.52;6.25;;;8.70;99.90;;;;;;5016329;28;20025;-73
2024/03/23 00:15:30;;;;;;;18.60;5.30;;;8.60;99.90;;;;;;5025000;28;20022;-74
2024/03/23 00:17:56;;;;;;;17.63;6.03;;;8.60;99.90;;;;;;5026199;28;20048;-73
2024/03/23 00:20:24;;;;;;;22.05;5.13;;;8.60;99.90;;;;;;5009335;28;20041;-73
2024/03/23 00:22:50;;;;;;;16.30;5.75;;;8.60;99.90;;;;;;5024246;28;20022;-74
2024/03/23 00:25:17;;;;;;;19.38;5.65;;;8.50;99.90;;;;;;5021706;28;20041;-74
2024/03/23 00:27:43;;;;;;;17.42;5.15;;;8.50;99.90;;;;;;5015679;28;20891;-74
2024/03/23 00:30:10;;;;;;;17.40;4.93;;;8.50;99.90;;;;;;5017446;28;20029;-74
2024/03/23 00:32:37;;;;;;;15.75;5.00;;;8.40;99.90;;;;;;5015549;28;20052;-74
2024/03/23 00:35:04;;;;;;;15.20;5.05;;;8.40;99.90;;;;;;5005155;28;20473;-74
2024/03/23 00:37:31;;;;;;;20.90;5.10;;;8.40;99.90;;;;;;5022504;28;20587;-74
2024/03/23 00:40:00;;;;;;;16.55;4.70;;;8.50;99.90;;;;;;5026402;28;20517;-74
2024/03/23 00:42:27;;;;;;;18.10;5.20;;;8.50;99.90;;;;;;5015292;28;20029;-74
2024/03/23 00:44:53;;;;;;;14.35;4.40;;;8.40;99.90;;;;;;5009048;28;20045;-73
2024/03/23 00:47:20;;;;;;;13.70;3.92;;;8.40;99.90;;;;;;5019826;28;20044;-73
2024/03/23 00:49:46;;;;;;;13.07;4.35;;;8.50;99.90;;;;;;5011097;28;20032;-73
2024/03/23 00:52:13;;;;;;;12.90;4.20;;;8.40;99.90;;;;;;5021186;28;20049;-73
2024/03/23 00:54:38;;;;;;;14.73;4.45;;;8.40;99.90;;;;;;5025194;28;20026;-73
2024/03/23 00:57:04;;;;;;;13.05;4.00;;;8.40;99.90;;;;;;5023547;28;20386;-72
2024/03/23 00:59:30;;;;;;;14.30;4.00;;;8.40;99.90;;;;;;5021774;28;20017;-73
2024/03/23 01:01:56;;;;;;;13.57;4.00;;;8.40;99.90;;;;;;5026656;28;20101;-74
2024/03/23 01:04:22;;;;;;;19.02;4.38;;;8.40;99.90;;;;;;5013302;28;20122;-74
2024/03/23 01:06:48;;;;;;;14.65;4.30;;;8.40;99.90;;;;;;5025571;28;20020;-74
2024/03/23 01:09:14;;;;;;;15.65;4.22;;;8.30;99.90;;;;;;5011084;28;20026;-74
2024/03/23 01:11:39;;;;;;;14.05;4.20;;;8.30;99.90;;;;;;5014068;28;20049;-73
2024/03/23 01:14:06;;;;;;;14.50;3.88;;;8.30;99.90;;;;;;5018924;28;20149;-73
2024/03/23 01:16:32;;;;;;;13.32;3.97;;;8.30;99.90;;;;;;5025081;28;20022;-74
2024/03/23 01:18:57;;;;;;;11.27;3.90;;;8.30;99.90;;;;;;5013604;28;20085;-73
2024/03/23 01:21:23;;;;;;;17.63;4.50;;;8.30;99.90;;;;;;5017816;28;20600;-75
2024/03/23 01:23:49;;;;;;;11.13;3.90;;;8.30;99.90;;;;;;5024854;28;20029;-74
2024/03/23 01:26:15;;;;;;;13.15;4.10;;;8.30;99.90;;;;;;5025852;28;20026;-74
2024/03/23 01:28:40;;;;;;;14.27;3.97;;;8.20;99.90;;;;;;5023728;28;20558;-73
2024/03/23 01:31:06;;;;;;;15.43;3.55;;;8.20;99.90;;;;;;5012792;28;20494;-74
2024/03/23 01:33:31;;;;;;;13.75;4.55;;;8.10;99.90;;;;;;5010298;28;20538;-74
2024/03/23 01:35:57;;;;;;;13.50;3.80;;;8.10;99.90;;;;;;5013551;28;20145;-74
2024/03/23 01:38:23;;;;;;;15.80;4.18;;;8.10;99.90;;;;;;5019911;28;20029;-74
2024/03/23 01:40:48;;;;;;;13.35;3.88;;;8.20;99.90;;;;;;5011602;28;20030;-74
2024/03/23 01:43:14;;;;;;;11.35;3.72;;;8.10;99.90;;;;;;5019987;28;20149;-74
2024/03/23 01:45:39;;;;;;;12.75;4.03;;;8.10;99.90;;;;;;5007600;28;20108;-74
2024/03/23 01:48:06;;;;;;;16.20;3.97;;;8.10;99.90;;;;;;5024543;28;20021;-74
2024/03/23 01:50:33;;;;;;;15.70;4.28;;;8.00;99.90;;;;;;5024808;28;20069;-74
2024/03/23 01:53:02;;;;;;;12.55;3.58;;;8.00;99.90;;;;;;5022561;28;20017;-73
2024/03/23 01:55:28;;;;;;;11.20;4.05;;;8.00;99.90;;;;;;5022972;28;20034;-74
2024/03/23 01:57:56;;;;;;;14.73;4.68;;;8.00;99.90;;;;;;5022014;28;20025;-73
2024/03/23 02:00:23;;;;;;;11.32;4.03;;;7.90;99.90;;;;;;5024150;28;20021;-73
2024/03/23 02:02:48;;;;;;;8.25;3.67;;;8.00;99.90;;;;;;5032733;28;20029;-74
2024/03/23 02:05:14;;;;;;;15.02;3.88;;;8.00;99.90;;;;;;5021533;28;20541;-73
2024/03/23 02:07:41;;;;;;;15.75;4.28;;;7.90;99.90;;;;;;5033486;28;20418;-74
2024/03/23 02:10:07;;;;;;;15.77;4.38;;;7.90;99.90;;;;;;5030825;28;20064;-73
2024/03/23 02:12:34;;;;;;;15.25;4.63;;;7.90;99.90;;;;;;5013324;28;20033;-74
2024/03/23 02:15:00;;;;;;;13.90;4.45;;;7.80;99.90;;;;;;5014427;28;20018;-74
2024/03/23 02:17:25;;;;;;;12.63;4.07;;;7.90;99.90;;;;;;5017847;28;20125;-74
2024/03/23 02:19:51;;;;;;;14.13;4.82;;;7.90;99.90;;;;;;5015073;28;20497;-74
2024/03/23 02:22:17;;;;;;;16.23;4.72;;;7.90;99.90;;;;;;5022201;28;20021;-74
2024/03/23 02:24:43;;;;;;;16.15;4.97;;;7.90;99.90;;;;;;5027025;28;20445;-75
2024/03/23 02:27:08;;;;;;;12.82;5.03;;;7.90;99.90;;;;;;5028225;28;20079;-74
2024/03/23 02:29:34;;;;;;;13.63;4.65;;;7.90;99.90;;;;;;5027316;28;20367;-74
2024/03/23 02:32:01;;;;;;;17.10;5.25;;;7.90;99.90;;;;;;5014667;28;20076;-76
2024/03/23 02:34:27;;;;;;;17.65;5.15;;;7.90;99.90;;;;;;5016744;28;20108;-73
2024/03/23 02:36:52;;;;;;;15.27;5.43;;;7.80;99.90;;;;;;5014037;28;20137;-73
2024/03/23 02:39:18;;;;;;;14.73;5.43;;;7.80;99.90;;;;;;5025933;28;20022;-73
2024/03/23 02:41:43;;;;;;;15.77;5.43;;;7.80;99.90;;;;;;5011835;28;20842;-74
2024/03/23 02:44:11;;;;;;;17.40;5.05;;;7.80;99.90;;;;;;5012167;28;20018;-74
2024/03/23 02:46:40;;;;;;;15.95;5.50;;;7.80;99.90;;;;;;5021631;28;20100;-73
2024/03/23 02:49:06;;;;;;;18.33;5.75;;;7.80;99.90;;;;;;5008730;28;20060;-74
2024/03/23 02:51:32;;;;;;;19.30;5.55;;;7.80;99.90;;;;;;5028114;28;20133;-74
2024/03/23 02:53:57;;;;;;;22.65;6.22;;;7.80;99.90;;;;;;5028025;28;20112;-74
2024/03/23 02:56:23;;;;;;;14.18;5.68;;;7.80;99.90;;;;;;5026594;28;20014;-74
2024/03/23 02:58:49;;;;;;;17.65;6.35;;;7.80;99.90;;;;;;5023678;28;20080;-73
2024/03/23 03:01:15;;;;;;;20.73;6.63;;;7.80;99.90;;;;;;5024585;28;20033;-73
2024/03/23 03:03:40;;;;;;;18.60;7.45;;;7.70;99.90;;;;;;5021345;28;20037;-73
2024/03/23 03:06:06;;;;;;;20.95;6.53;;;7.70;99.90;;;;;;5015704;28;20626;-73
2024/03/23 03:08:31;;;;;;;19.17;6.60;;;7.70;99.90;;;;;;5026278;28;20125;-73
2024/03/23 03:10:57;;;;;;;14.95;6.13;;;7.70;99.90;;;;;;5020780;28;20044;-73
2024/03/23 03:13:22;;;;;;;20.50;6.85;;;7.70;99.90;;;;;;5027420;28;20100;-73
2024/03/23 03:15:48;;;;;;;19.85;7.38;;;7.70;99.90;;;;;;5021171;28;20011;-73
2024/03/23 03:18:14;;;;;;;19.73;6.97;;;7.70;99.90;;;;;;5009724;28;20582;-73
2024/03/23 03:20:40;;;;;;;19.77;6.95;;;7.70;99.90;;;;;;5025428;28;20107;-74
2024/03/23 03:23:07;;;;;;;18.40;7.32;;;7.70;99.90;;;;;;5027072;28;20558;-74
2024/03/23 03:25:33;;;;;;;20.55;7.68;;;7.70;99.90;;;;;;5026622;28;20501;-74
2024/03/23 03:27:58;;;;;;;25.10;7.72;;;7.70;99.90;;;;;;5026403;28;20021;-74
2024/03/23 03:30:24;;;;;;;19.45;7.30;;;7.70;99.90;;;;;;5027381;28;20466;-74
2024/03/23 03:32:53;;;;;;;24.15;7.65;;;7.70;99.90;;;;;;5022785;28;20033;-74
2024/03/23 03:35:20;;;;;;;20.63;8.00;;;7.70;99.90;;;;;;5013897;28;20105;-76
2024/03/23 03:37:49;;;;;;;25.35;8.43;;;7.70;99.90;;;;;;5042489;28;20044;-75
2024/03/23 03:40:17;;;;;;;17.67;8.48;;;7.60;99.90;;;;;;5011884;28;20022;-75
2024/03/23 03:42:44;;;;;;;20.23;8.43;;;7.60;99.90;;;;;;5024527;28;20052;-75
2024/03/23 03:45:10;;;;;;;22.23;7.75;;;7.60;99.90;;;;;;5019116;28;20022;-74
2024/03/23 03:47:36;;;;;;;22.50;8.27;;;7.60;99.90;;;;;;5009206;28;20030;-74
2024/03/23 03:50:01;;;;;;;24.33;8.60;;;7.60;99.90;;;;;;5013485;28;20554;-73
2024/03/23 03:52:27;;;;;;;25.13;8.80;;;7.60;99.90;;;;;;5026173;28;20041;-75
2024/03/23 03:55:02;;;;;;;22.90;9.10;;;7.60;99.90;;;;;;5024348;28;20104;-74
2024/03/23 03:57:27;;;;;;;25.63;9.00;;;7.60;99.90;;;;;;5026874;28;20144;-74
2024/03/23 03:59:53;;;;;;;23.10;9.52;;;7.60;99.90;;;;;;5022849;28;20487;-74
2024/03/23 04:02:19;;;;;;;23.45;9.05;;;7.60;99.90;;;;;;5019928;28;20113;-74
2024/03/23 04:04:44;;;;;;;26.55;8.43;;;7.60;99.90;;;;;;5031923;28;20541;-74
2024/03/23 04:07:10;;;;;;;20.67;8.88;;;7.60;99.90;;;;;;5027244;28;20026;-74
2024/03/23 04:09:35;;;;;;;23.75;9.48;;;7.60;99.90;;;;;;5026251;28;20025;-74
2024/03/23 04:12:01;;;;;;;26.55;9.30;;;7.60;99.90;;;;;;5017963;28;20056;-74
2024/03/23 04:14:27;;;;;;;32.00;9.70;;;7.60;99.90;;;;;;5028693;28;20017;-74
2024/03/23 04:16:52;;;;;;;22.20;8.93;;;7.60;99.90;;;;;;5011174;28;20034;-74
2024/03/23 04:19:18;;;;;;;22.13;8.10;;;7.60;99.90;;;;;;5008861;28;20018;-74
2024/03/23 04:21:44;;;;;;;21.60;8.32;;;7.60;99.90;;;;;;5016607;28;20395;-73
2024/03/23 04:24:09;;;;;;;21.27;8.25;;;7.50;99.90;;;;;;5026562;28;20501;-74
2024/03/23 04:26:44;;;;;;;21.13;8.13;;;7.50;99.90;;;;;;5024543;28;20041;-74
2024/03/23 04:29:09;;;;;;;17.08;7.03;;;7.40;99.90;;;;;;5022439;28;20049;-74
2024/03/23 04:31:35;;;;;;;25.13;8.05;;;7.40;99.90;;;;;;5013582;28;20026;-73
2024/03/23 04:34:01;;;;;;;22.17;7.78;;;7.40;99.90;;;;;;5014298;28;20466;-73
2024/03/23 04:36:27;;;;;;;22.50;7.55;;;7.30;99.90;;;;;;5024949;28;20036;-73
2024/03/23 04:38:53;;;;;;;26.98;8.02;;;7.30;99.90;;;;;;5017273;28;20532;-73
2024/03/23 04:41:18;;;;;;;20.67;5.78;;;7.30;99.90;;;;;;5023244;28;20025;-74
2024/03/23 04:43:44;;;;;;;22.63;7.13;;;7.30;99.90;;;;;;5008444;28;20029;-74
2024/03/23 04:46:10;;;;;;;20.63;6.55;;;7.20;99.90;;;;;;5035927;28;20052;-73
2024/03/23 04:48:36;;;;;;;24.27;6.18;;;7.20;99.90;;;;;;5015860;28;20035;-73
2024/03/23 04:51:02;;;;;;;16.75;5.63;;;7.20;99.90;;;;;;5024797;28;20052;-74
2024/03/23 04:53:30;;;;;;;14.80;5.28;;;7.10;99.90;;;;;;5023367;28;20466;-74
2024/03/23 04:55:57;;;;;;;14.88;4.60;;;7.10;99.90;;;;;;5022441;28;20109;-75
2024/03/23 04:58:23;;;;;;;19.27;4.97;;;7.10;99.90;;;;;;5025730;28;20521;-74
2024/03/23 05:00:56;;;;;;;14.77;4.32;;;7.00;99.90;;;;;;5016998;28;20022;-74
2024/03/23 05:03:22;;;;;;;17.00;4.75;;;7.00;99.90;;;;;;5018405;28;20029;-74
2024/03/23 05:05:50;;;;;;;18.13;4.50;;;7.00;99.90;;;;;;5014138;28;20052;-74
2024/03/23 05:08:16;;;;;;;20.40;5.15;;;7.00;99.90;;;;;;5015501;28;20040;-74
2024/03/23 05:10:43;;;;;;;14.85;5.28;;;7.00;99.90;;;;;;5020103;28;20386;-74
2024/03/23 05:13:09;;;;;;;19.20;4.22;;;6.90;99.90;;;;;;5022120;28;20095;-74
2024/03/23 05:15:35;;;;;;;22.92;4.82;;;6.90;99.90;;;;;;5024987;28;20018;-74
2024/03/23 05:18:01;;;;;;;15.80;4.20;;;6.90;99.90;;;;;;5025981;28;20046;-74
2024/03/23 05:20:26;;;;;;;21.02;4.82;;;6.90;99.90;;;;;;5012500;28;20029;-74
2024/03/23 05:22:55;;;;;;;14.52;4.50;;;6.80;99.90;;;;;;5025753;28;20033;-74
2024/03/23 05:25:21;;;;;;;13.68;4.20;;;6.80;99.90;;;;;;5025084;28;20060;-74
2024/03/23 05:27:47;;;;;;;10.10;4.05;;;6.80;99.90;;;;;;5023897;28;20021;-74
2024/03/23 05:30:13;;;;;;;16.67;4.82;;;6.70;99.90;;;;;;5016357;28;20125;-74
2024/03/23 05:32:40;;;;;;;13.50;4.07;;;6.60;99.90;;;;;;5021554;28;20060;-75
2024/03/23 05:35:07;;;;;;;13.35;4.35;;;6.60;99.90;;;;;;5024754;28;20026;-75
2024/03/23 05:37:33;;;;;;;20.95;4.95;;;6.60;99.90;;;;;;5033172;28;20141;-73
2024/03/23 05:40:00;;;;;;;18.55;4.47;;;6.60;99.90;;;;;;5014958;28;20388;-74
2024/03/23 05:42:25;;;;;;;19.20;4.72;;;6.60;99.90;;;;;;5013743;28;20033;-73
2024/03/23 05:44:52;;;;;;;13.98;4.50;;;6.50;99.90;;;;;;5013278;28;20034;-74
2024/03/23 05:47:17;;;;;;;18.50;4.63;;;6.50;99.90;;;;;;5024122;28;20064;-74
2024/03/23 05:49:43;;;;;;;14.48;4.47;;;6.50;99.90;;;;;;5028616;28;20421;-75
2024/03/23 05:52:12;;;;;;;10.05;3.72;;;6.50;99.90;;;;;;5028607;28;20454;-74
2024/03/23 05:54:38;;;;;;;18.60;4.07;;;6.50;99.90;;;;;;5024252;28;20527;-75
2024/03/23 05:57:04;;;;;;;15.82;4.60;;;6.50;99.90;;;;;;5026460;28;20025;-74
2024/03/23 05:59:31;;;;;;;17.60;4.80;;;6.50;99.90;;;;;;5020653;28;20078;-74
2024/03/23 06:01:56;;;;;;;13.95;4.32;;;6.50;99.90;;;;;;5028297;28;20025;-74
2024/03/23 06:04:22;;;;;;;12.95;3.72;;;6.50;99.90;;;;;;5029545;28;20025;-74
2024/03/23 06:06:48;;;;;;;14.18;4.03;;;6.50;99.90;;;;;;5022722;28;20039;-75
2024/03/23 06:09:13;;;;;;;16.75;4.40;;;6.50;99.90;;;;;;5019733;28;20022;-74
2024/03/23 06:11:39;;;;;;;19.52;4.13;;;6.50;99.90;;;;;;5015561;28;20030;-74
2024/03/23 06:14:05;;;;;;;12.90;3.85;;;6.50;99.90;;;;;;5018148;28;20105;-74
2024/03/23 06:16:31;;;;;;;13.77;3.72;;;6.40;99.90;;;;;;5017754;28;20054;-74
2024/03/23 06:18:57;;;;;;;17.88;4.65;;;6.40;99.90;;;;;;5016137;28;20103;-74
2024/03/23 06:21:23;;;;;;;12.82;3.60;;;6.50;99.90;;;;;;5029078;28;20055;-75
2024/03/23 06:23:52;;;;;;;14.55;4.03;;;6.50;99.90;;;;;;5027444;28;20028;-74
2024/03/23 06:26:22;;;;;;;11.68;3.30;;;6.50;99.90;;;;;;5026639;28;20071;-74
2024/03/23 06:28:48;;;;;;;12.00;3.53;;;6.50;99.90;;;;;;5020037;28;20017;-74
2024/03/23 06:31:14;;;;;;;16.20;4.10;;;6.50;99.90;;;;;;5019555;28;20516;-75
2024/03/23 06:33:41;;;;;;;13.02;3.63;;;6.60;99.90;;;;;;5021168;28;20052;-74
2024/03/23 06:36:10;;;;;;;14.35;3.63;;;6.60;99.90;;;;;;5018443;28;20025;-74
2024/03/23 06:38:37;;;;;;;14.10;3.55;;;6.70;99.90;;;;;;5026700;28;20083;-76
2024/03/23 06:41:04;;;;;;;11.75;3.20;;;6.70;99.90;;;;;;5024069;28;20026;-76
2024/03/23 06:43:29;;;;;;;13.45;3.55;;;6.80;99.90;;;;;;5022617;28;20034;-76
2024/03/23 06:45:55;;;;;;;10.90;3.22;;;6.80;99.90;;;;;;5022975;28;20030;-75
2024/03/23 06:48:21;;;;;;;13.85;3.40;;;6.70;99.90;;;;;;5028015;28;20029;-75
2024/03/23 06:50:47;;;;;;;14.32;3.42;;;6.80;99.90;;;;;;5018195;28;20025;-74
2024/03/23 06:53:14;;;;;;;13.90;3.45;;;6.70;99.90;;;;;;5020312;28;20044;-75
2024/03/23 06:55:40;;;;;;;14.00;3.72;;;6.80;99.90;;;;;;5022292;28;20122;-75
2024/03/23 06:58:05;;;;;;;14.65;3.70;;;6.80;99.90;;;;;;5017914;28;20113;-74
2024/03/23 07:00:32;;;;;;;14.10;3.38;;;6.80;99.90;;;;;;5020317;28;20095;-74
2024/03/23 07:02:58;;;;;;;13.18;3.67;;;6.80;99.90;;;;;;5019769;28;20028;-74
2024/03/23 07:05:23;;;;;;;18.17;4.07;;;6.90;99.90;;;;;;5022593;28;20079;-74
2024/03/23 07:07:49;;;;;;;17.55;4.00;;;6.90;99.90;;;;;;5027504;28;20021;-74
2024/03/23 07:10:15;;;;;;;9.35;3.33;;;7.00;99.90;;;;;;5008608;28;20025;-74
2024/03/23 07:12:41;;;;;;;13.38;3.70;;;7.10;99.90;;;;;;5011972;28;20022;-74
2024/03/23 07:15:08;;;;;;;13.75;3.70;;;7.20;99.90;;;;;;5020802;28;20021;-74
2024/03/23 07:17:35;;;;;;;14.77;2.88;;;7.20;99.90;;;;;;5018001;28;20046;-74
2024/03/23 07:20:03;;;;;;;14.82;3.00;;;7.20;99.90;;;;;;5019608;28;20033;-74
2024/03/23 07:22:32;;;;;;;15.05;3.25;;;7.20;99.90;;;;;;5018784;28;20094;-75
2024/03/23 07:25:01;;;;;;;12.63;3.15;;;7.20;99.90;;;;;;5013513;28;20029;-76
2024/03/23 07:27:27;;;;;;;13.88;3.45;;;7.20;99.90;;;;;;5009869;28;20410;-76
2024/03/23 07:29:53;;;;;;;15.35;3.40;;;7.30;99.90;;;;;;5012600;28;20032;-75
2024/03/23 07:32:19;;;;;;;12.45;2.90;;;7.30;99.90;;;;;;5021407;28;20022;-76
2024/03/23 07:34:44;;;;;;;10.25;3.10;;;7.30;99.90;;;;;;5022133;28;20030;-75
2024/03/23 07:37:10;;;;;;;16.70;3.28;;;7.30;99.90;;;;;;5013729;28;20041;-75
2024/03/23 07:39:36;;;;;;;10.57;3.13;;;7.30;99.90;;;;;;5016025;28;20128;-75
2024/03/23 07:42:02;;;;;;;14.55;3.05;;;7.20;99.90;;;;;;5019612;28;20112;-75
2024/03/23 07:44:28;;;;;;;9.35;2.92;;;7.20;99.90;;;;;;5013385;28;20155;-76
2024/03/23 07:46:53;;;;;;;14.02;2.95;;;7.30;99.90;;;;;;5009776;28;20493;-75
2024/03/23 07:49:19;;;;;;;15.30;3.10;;;7.40;99.90;;;;;;5021858;28;20538;-75
2024/03/23 07:51:45;;;;;;;11.98;2.85;;;7.50;99.90;;;;;;5008419;28;20037;-75
2024/03/23 07:54:10;;;;;;;13.25;3.00;;;7.50;99.90;;;;;;5010511;28;20072;-75
2024/03/23 07:56:36;;;;;;;10.52;3.10;;;7.60;99.90;;;;;;5010383;28;20137;-75
2024/03/23 07:59:03;;;;;;;12.73;3.08;;;7.70;99.90;;;;;;5012559;28;20166;-75
2024/03/23 08:01:29;;;;;;;10.93;2.83;;;7.80;99.90;;;;;;5024233;28;20497;-75
2024/03/23 08:03:55;;;;;;;12.27;3.03;;;7.80;99.90;;;;;;5019999;28;20026;-76
2024/03/23 08:06:22;;;;;;;10.95;2.60;;;7.90;99.90;;;;;;5013048;28;20025;-75
2024/03/23 08:08:50;;;;;;;11.82;3.25;;;7.90;99.90;;;;;;5015534;28;20046;-75
2024/03/23 08:11:16;;;;;;;10.63;2.60;;;8.00;99.90;;;;;;5014393;28;20061;-76
2024/03/23 08:13:44;;;;;;;13.70;2.92;;;8.10;99.90;;;;;;5020874;28;20068;-76
2024/03/23 08:16:13;;;;;;;11.18;3.00;;;8.20;99.90;;;;;;5024487;28;20022;-76
2024/03/23 08:18:40;;;;;;;13.75;2.88;;;8.40;99.90;;;;;;5020857;28;20577;-76
2024/03/23 08:21:06;;;;;;;13.82;2.70;;;8.40;99.90;;;;;;5016521;28;20438;-76
2024/03/23 08:23:34;;;;;;;10.27;2.95;;;8.50;99.90;;;;;;5022449;28;20021;-75
2024/03/23 08:26:01;;;;;;;10.13;3.00;;;8.50;99.90;;;;;;5007889;28;20033;-75
2024/03/23 08:28:27;;;;;;;12.63;3.25;;;8.50;99.90;;;;;;5007747;28;20587;-76
2024/03/23 08:30:54;;;;;;;11.05;3.08;;;8.50;99.90;;;;;;5020917;28;20040;-75
2024/03/23 08:33:20;;;;;;;8.85;2.50;;;8.60;99.90;;;;;;5022530;28;20025;-76
2024/03/23 08:35:56;;;;;;;11.25;2.20;;;8.60;99.90;;;;;;5018344;28;20040;-76
2024/03/23 08:38:22;;;;;;;12.25;2.97;;;8.60;99.90;;;;;;5017823;28;20040;-76
2024/03/23 08:40:55;;;;;;;15.07;2.92;;;8.70;99.90;;;;;;5021234;28;20028;-76
2024/03/23 08:43:21;;;;;;;10.27;2.22;;;8.70;99.90;;;;;;5024402;28;20192;-76
2024/03/23 08:45:47;;;;;;;7.50;1.80;;;8.70;99.90;;;;;;5024786;28;20136;-76
2024/03/23 08:48:12;;;;;;;6.80;1.92;;;8.70;99.90;;;;;;5016240;28;20371;-76
2024/03/23 08:50:38;;;;;;;10.32;2.03;;;8.80;99.90;;;;;;5007252;28;20133;-76
2024/03/23 08:53:04;;;;;;;9.85;2.25;;;8.80;99.90;;;;;;5019355;28;20018;-76
2024/03/23 08:55:30;;;;;;;15.50;3.63;;;8.90;99.90;;;;;;5025926;28;20029;-76
2024/03/23 08:57:55;;;;;;;9.10;2.08;;;9.00;99.90;;;;;;5026374;28;20108;-75
2024/03/23 09:00:21;;;;;;;11.40;2.85;;;9.00;99.90;;;;;;5013809;28;20025;-75
2024/03/23 09:02:48;;;;;;;10.15;2.40;;;9.10;99.90;;;;;;5016059;28;20026;-76
2024/03/23 09:05:13;;;;;;;7.15;1.80;;;9.20;99.90;;;;;;5025418;28;20033;-76
2024/03/23 09:07:39;;;;;;;9.85;2.58;;;9.20;99.90;;;;;;5024719;28;20029;-75
2024/03/23 09:10:05;;;;;;;9.05;1.98;;;9.20;99.90;;;;;;5024452;28;20026;-75
2024/03/23 09:12:31;;;;;;;11.85;2.58;;;9.30;99.90;;;;;;5026062;28;20028;-75
2024/03/23 09:14:56;;;;;;;9.93;1.90;;;9.40;99.90;;;;;;5025458;28;20398;-75
2024/03/23 09:17:22;;;;;;;9.70;2.42;;;9.50;99.90;;;;;;5007772;28;20037;-75
2024/03/23 09:19:47;;;;;;;10.15;1.83;;;9.60;99.90;;;;;;5007071;28;20064;-75
2024/03/23 09:22:13;;;;;;;7.90;1.85;;;9.70;99.90;;;;;;5027532;28;20033;-76
2024/03/23 09:24:39;;;;;;;5.68;1.30;;;9.80;99.90;;;;;;5013261;28;20479;-76
2024/03/23 09:27:04;;;;;;;5.60;1.10;;;9.80;99.90;;;;;;5010343;28;20018;-76
2024/03/23 09:29:30;;;;;;;5.68;1.42;;;9.80;99.90;;;;;;5015571;28;20403;-75
2024/03/23 09:31:56;;;;;;;7.10;1.40;;;9.70;99.90;;;;;;5024033;28;20060;-76
2024/03/23 09:34:21;;;;;;;4.68;1.23;;;9.70;99.90;;;;;;5023721;28;20033;-75
2024/03/23 09:36:51;;;;;;;6.82;1.02;;;9.70;99.90;;;;;;5017782;28;20040;-75
2024/03/23 09:39:17;;;;;;;7.03;1.90;;;9.80;99.90;;;;;;5012570;28;20021;-76
2024/03/23 09:41:43;;;;;;;13.23;1.90;;;9.80;99.90;;;;;;5016469;28;20041;-75
2024/03/23 09:44:09;;;;;;;11.50;1.58;;;9.80;99.90;;;;;;5034479;28;20022;-75
2024/03/23 09:46:36;;;;;;;8.23;1.40;;;9.70;99.90;;;;;;5010496;28;20561;-76
2024/03/23 09:49:06;;;;;;;9.15;1.52;;;9.60;99.90;;;;;;5011863;28;20037;-76
2024/03/23 09:51:32;;;;;;;7.47;1.40;;;9.50;99.90;;;;;;5018122;28;20032;-75
2024/03/23 09:53:57;;;;;;;7.78;1.95;;;9.40;99.90;;;;;;5021687;28;20402;-75
2024/03/23 09:56:23;;;;;;;9.77;2.10;;;9.40;99.90;;;;;;5012436;28;20130;-76
2024/03/23 09:58:49;;;;;;;7.97;1.80;;;9.50;99.90;;;;;;5025901;28;20032;-75
2024/03/23 10:01:16;;;;;;;7.53;1.67;;;9.60;99.90;;;;;;5022667;28;20050;-75
2024/03/23 10:03:43;;;;;;;8.73;2.00;;;9.70;99.90;;;;;;5023727;28;20056;-76
2024/03/23 10:06:09;;;;;;;7.90;1.88;;;9.80;99.90;;;;;;5021112;28;20480;-76
2024/03/23 10:08:35;;;;;;;9.65;2.28;;;10.00;99.90;;;;;;5017914;28;20034;-75
2024/03/23 10:11:16;;;;;;;9.07;1.98;;;10.10;99.90;;;;;;5015446;28;20399;-76
2024/03/23 10:13:43;;;;;;;11.55;1.63;;;10.10;99.90;;;;;;5011432;28;20021;-77
2024/03/23 10:16:09;;;;;;;16.13;2.42;;;10.20;99.90;;;;;;5013631;28;20075;-75
2024/03/23 10:18:39;;;;;;;7.10;1.60;;;10.30;99.90;;;;;;5021997;28;20048;-76
2024/03/23 10:21:13;;;;;;;11.85;1.73;;;10.30;99.90;;;;;;5016239;28;20373;-76
2024/03/23 10:23:41;;;;;;;7.35;1.30;;;10.30;99.90;;;;;;5014067;28;20037;-75
2024/03/23 10:26:17;;;;;;;5.15;1.75;;;10.20;99.90;;;;;;5019476;28;20116;-75
2024/03/23 10:29:07;;;;;;;10.30;1.65;;;10.10;99.90;;;;;;5011338;28;20026;-75
2024/03/23 10:31:35;;;;;;;4.80;1.50;;;10.10;99.90;;;;;;5020093;28;20034;-74
2024/03/23 10:34:02;;;;;;;6.60;1.52;;;10.10;99.90;;;;;;5022671;28;20076;-76
2024/03/23 10:36:29;;;;;;;6.35;1.42;;;10.20;99.90;;;;;;5027346;28;20073;-75
2024/03/23 10:38:55;;;;;;;5.93;1.30;;;10.30;99.90;;;;;;5024330;28;20025;-75
2024/03/23 10:41:21;;;;;;;6.78;1.48;;;10.20;99.90;;;;;;5023728;28;20485;-75
2024/03/23 10:43:47;;;;;;;6.22;1.58;;;10.30;99.90;;;;;;5015906;28;20311;-74
2024/03/23 10:46:13;;;;;;;6.57;1.63;;;10.40;99.90;;;;;;5015908;28;20509;-75
2024/03/23 10:48:40;;;;;;;8.88;1.88;;;10.50;99.90;;;;;;5020279;28;20056;-75
2024/03/23 10:51:09;;;;;;;10.32;1.85;;;10.60;99.90;;;;;;5023846;28;20029;-76
2024/03/23 10:53:36;;;;;;;7.90;1.70;;;10.60;99.90;;;;;;5020643;28;20433;-76
2024/03/23 10:56:03;;;;;;;8.95;2.05;;;10.70;99.90;;;;;;5017393;28;20026;-74
2024/03/23 10:58:39;;;;;;;10.27;2.53;;;10.80;99.90;;;;;;5019901;28;20018;-75
2024/03/23 11:01:04;;;;;;;9.80;2.70;;;10.90;99.90;;;;;;5019275;28;20036;-75
2024/03/23 11:03:37;;;;;;;7.15;2.17;;;10.90;99.90;;;;;;5015286;28;20026;-76
2024/03/23 11:06:07;;;;;;;9.50;1.92;;;11.00;99.90;;;;;;5028207;28;20057;-76
2024/03/23 11:08:34;;;;;;;6.93;1.40;;;11.10;99.90;;;;;;5017809;28;20026;-76
2024/03/23 11:11:12;;;;;;;6.55;1.98;;;11.20;99.90;;;;;;5007952;28;20376;-76
2024/03/23 11:13:38;;;;;;;11.82;2.30;;;11.20;99.90;;;;;;5025140;28;20362;-76
2024/03/23 11:16:35;;;;;;;6.07;1.60;;;11.20;99.90;;;;;;5014798;28;20533;-75
2024/03/23 11:19:36;;;;;;;6.13;1.73;;;11.10;99.90;;;;;;5004805;28;20070;-76
2024/03/23 11:22:05;;;;;;;6.93;1.52;;;11.00;99.90;;;;;;5019514;28;20044;-76
2024/03/23 11:24:31;;;;;;;7.38;1.98;;;11.00;99.90;;;;;;5014360;28;20112;-76
2024/03/23 11:27:03;;;;;;;6.90;1.75;;;11.10;99.90;;;;;;5014934;28;20025;-75
2024/03/23 11:29:29;;;;;;;7.40;1.90;;;11.20;99.90;;;;;;5022674;28;20798;-76
2024/03/23 11:31:56;;;;;;;13.50;2.35;;;11.20;99.90;;;;;;5019743;28;20025;-75
2024/03/23 11:34:22;;;;;;;7.50;1.75;;;11.20;99.90;;;;;;5021426;28;20041;-75
2024/03/23 11:36:50;;;;;;;4.03;1.35;;;11.20;99.90;;;;;;5025766;28;20394;-75
2024/03/23 11:39:20;;;;;;;9.82;2.13;;;11.20;99.90;;;;;;5020842;28;20026;-75
2024/03/23 11:41:49;;;;;;;4.18;1.40;;;11.20;99.90;;;;;;5018168;28;20037;-75
2024/03/23 11:44:18;;;;;;;4.32;1.67;;;11.20;99.90;;;;;;5023643;28;20025;-75
2024/03/23 11:46:44;;;;;;;3.60;1.55;;;11.30;99.90;;;;;;5024192;28;20026;-76
2024/03/23 11:49:27;;;;;;;6.55;1.50;;;11.40;99.90;;;;;;5024353;28;20502;-76
2024/03/23 11:51:54;;;;;;;5.35;1.50;;;11.30;99.90;;;;;;5022588;28;20053;-75
2024/03/23 11:54:26;;;;;;;6.53;1.90;;;11.20;99.90;;;;;;5012330;28;20030;-76
2024/03/23 11:57:08;;;;;;;8.00;1.67;;;11.10;99.90;;;;;;5030674;28;20095;-75
2024/03/23 11:59:36;;;;;;;6.25;1.33;;;11.10;99.90;;;;;;5014618;28;20014;-75
2024/03/23 12:02:06;;;;;;;4.57;1.42;;;11.00;99.90;;;;;;5010553;28;20049;-75
2024/03/23 12:04:31;;;;;;;5.35;1.27;;;11.00;99.90;;;;;;5018168;28;20053;-75
2024/03/23 12:07:20;;;;;;;6.55;1.40;;;10.90;99.90;;;;;;5021254;28;20017;-76
2024/03/23 12:09:46;;;;;;;5.75;1.00;;;10.70;99.90;;;;;;5017999;28;20068;-76
2024/03/23 12:12:16;;;;;;;6.13;1.40;;;10.50;99.90;;;;;;5018657;28;20025;-75
2024/03/23 12:15:01;;;;;;;7.95;1.75;;;10.40;99.90;;;;;;5023584;28;20166;-76
2024/03/23 12:17:27;;;;;;;6.18;1.33;;;10.40;99.90;;;;;;5022049;28;20502;-75
2024/03/23 12:19:52;;;;;;;7.75;1.65;;;10.30;99.90;;;;;;5023145;28;20025;-75
2024/03/23 12:22:21;;;;;;;6.18;1.60;;;10.30;99.90;;;;;;5010649;28;20032;-76
2024/03/23 12:24:47;;;;;;;8.10;1.90;;;10.30;99.90;;;;;;5023478;28;20037;-76
2024/03/23 12:27:14;;;;;;;10.95;1.60;;;10.30;99.90;;;;;;5017286;28;20486;-75
2024/03/23 12:29:41;;;;;;;3.78;1.40;;;10.30;99.90;;;;;;5015766;28;20025;-75
2024/03/23 12:32:07;;;;;;;8.00;1.67;;;10.30;99.90;;;;;;5026365;28;20037;-75
2024/03/23 12:34:33;;;;;;;10.80;2.05;;;10.40;99.90;;;;;;5014554;28;20022;-75
2024/03/23 12:36:58;;;;;;;9.07;1.83;;;10.40;99.90;;;;;;5013291;28;20052;-75
2024/03/23 12:39:24;;;;;;;10.48;1.60;;;10.40;99.90;;;;;;5018565;28;20013;-75
2024/03/23 12:41:51;;;;;;;9.93;2.05;;;10.50;99.90;;;;;;5017457;28;20072;-76
2024/03/23 12:44:17;;;;;;;4.88;1.45;;;10.60;99.90;;;;;;5017533;28;20036;-75
2024/03/23 12:46:44;;;;;;;11.65;1.98;;;10.70;99.90;;;;;;5015192;28;20022;-76